Flight Track Log - Related Links

Times and Time Zones

All times are in EDT time to prevent confusion due to time zone crossing. See the N173AA flight status page for this flight to view local times or setup timezone preferences in your user account.

Time Position Orientation Groundspeed Altitude Reporting Facility
EDT Latitude Longitude Course Direction KTS MPH feet Rate Location/Type
Wed 08:06:27 PM 35.7433 -78.4019 99° East 268 308 7,500  Level Washington Center
Wed 08:07:27 PM 35.7308 -78.3069 99° East 274 315 7,500 -50 Level Washington Center
Wed 08:08:27 PM 35.7206 -78.2117 98° East 279 321 7,400  Descending Washington Center
Wed 08:09:27 PM 35.7100 -78.1169 98° East 274 315 7,500  Climbing Washington Center
Wed 08:10:27 PM 35.6975 -78.0244 99° East 274 315 7,400  Descending Washington Center
Wed 08:11:27 PM 35.6889 -77.9294 96° East 274 315 7,500  Climbing Washington Center
Wed 08:12:27 PM 35.6781 -77.8372 98° East 274 315 7,400 -250 Descending Washington Center
Wed 08:13:27 PM 35.6692 -77.7500 97° East 274 315 7,000 -1,100 Descending Washington Center
Wed 08:14:27 PM 35.6644 -77.6628 94° East 260 299 5,200 -1,900 Descending Washington Center
Wed 08:15:27 PM 35.6597 -77.5783 94° East 255 293 3,200 -2,000 Descending Washington Center
Wed 08:17:00 PM 35.7263 -77.6210 321° Northwest  Level Estimated
Wed 08:24:00 PM 36.0271 -77.8144 328° Northwest  Level Estimated
Wed 08:25:00 PM 36.0706 -77.7881 26° Northeast  Level FlightAware Approximate
Wed 08:26:00 PM 36.1134 -77.8162 332° Northwest  Level Estimated
Wed 08:27:00 PM 36.1562 -77.8443 329° Northwest  Level Estimated
Wed 08:28:00 PM 36.2046 -77.8468 358° North  Level FlightAware Approximate
Wed 08:29:00 PM 36.2473 -77.8751 327° Northwest  Level Estimated
Wed 08:30:00 PM 36.2933 -77.8938 342° North  Level FlightAware Approximate
Wed 08:31:00 PM 36.3360 -77.9222 332° Northwest  Level Estimated
Wed 08:32:00 PM 36.3787 -77.9507 332° Northwest  Level Estimated
Wed 08:33:00 PM 36.4213 -77.9793 338° Northwest  Level Estimated
Wed 08:34:00 PM 36.4639 -78.0079 321° Northwest  Level Estimated
Wed 08:35:00 PM 36.5066 -78.0365 332° Northwest  Level Estimated
Wed 08:36:00 PM 36.5498 -78.0638 333° Northwest  Level FlightAware Approximate
Wed 08:37:00 PM 36.5930 -78.0911 333° Northwest  Level FlightAware Approximate
Wed 08:38:00 PM 36.6356 -78.1198 321° Northwest  Level Estimated
Wed 08:39:00 PM 36.6782 -78.1486 329° Northwest  Level Estimated
Wed 08:40:00 PM 36.7168 -78.1851 323° Northwest  Level FlightAware Approximate
Wed 08:41:00 PM 36.7594 -78.2139 332° Northwest  Level Estimated
Wed 08:42:00 PM 36.8020 -78.2427 329° Northwest  Level Estimated
Wed 08:43:00 PM 36.8446 -78.2715 329° Northwest  Level Estimated
Wed 08:44:00 PM 36.8841 -78.3064 325° Northwest  Level FlightAware Approximate
Wed 08:45:00 PM 36.9267 -78.3353 327° Northwest  Level Estimated
Wed 08:46:00 PM 36.9668 -78.3694 326° Northwest  Level FlightAware Approximate
Wed 08:47:00 PM 37.0068 -78.4036 326° Northwest  Level FlightAware Approximate
Wed 08:48:00 PM 37.0468 -78.4378 326° Northwest  Level FlightAware Approximate
Wed 08:49:00 PM 37.0895 -78.4666 338° Northwest  Level Estimated
Wed 08:50:00 PM 37.1321 -78.4954 329° Northwest  Level Estimated
Wed 08:51:00 PM 37.1735 -78.5271 329° Northwest  Level FlightAware Approximate
Wed 08:52:00 PM 37.2148 -78.5587 329° Northwest  Level FlightAware Approximate
Wed 08:53:00 PM 37.2562 -78.5904 329° Northwest  Level FlightAware Approximate
Wed 08:54:00 PM 37.2975 -78.6222 329° Northwest  Level FlightAware Approximate
Wed 08:55:00 PM 37.3388 -78.6540 329° Northwest  Level FlightAware Approximate
Wed 08:56:00 PM 37.3802 -78.6858 329° Northwest  Level FlightAware Approximate
Wed 08:57:00 PM 37.4215 -78.7176 329° Northwest  Level FlightAware Approximate
Wed 08:58:00 PM 37.4628 -78.7495 329° Northwest  Level FlightAware Approximate
Wed 08:59:00 PM 37.5041 -78.7814 328° Northwest  Level FlightAware Approximate
Wed 09:00:00 PM 37.5454 -78.8133 328° Northwest  Level FlightAware Approximate
Wed 09:01:00 PM 37.5867 -78.8453 328° Northwest  Level FlightAware Approximate
Wed 09:02:00 PM 37.6279 -78.8773 328° Northwest  Level FlightAware Approximate
Wed 09:03:00 PM 37.6706 -78.9062 327° Northwest  Level Estimated
Wed 09:04:00 PM 37.7113 -78.9396 327° Northwest  Level FlightAware Approximate
Wed 09:05:00 PM 37.7519 -78.9730 327° Northwest  Level FlightAware Approximate
Wed 09:06:00 PM 37.7925 -79.0064 327° Northwest  Level FlightAware Approximate
Wed 09:07:00 PM 37.8331 -79.0399 327° Northwest  Level FlightAware Approximate
Wed 09:08:00 PM 37.8736 -79.0734 327° Northwest  Level FlightAware Approximate
Wed 09:09:00 PM 37.9142 -79.1069 327° Northwest  Level FlightAware Approximate
Wed 09:10:00 PM 37.9548 -79.1405 327° Northwest  Level FlightAware Approximate
Wed 09:11:00 PM 37.9954 -79.1741 327° Northwest  Level FlightAware Approximate
Wed 09:12:00 PM 38.0382 -79.2029 329° Northwest  Level Estimated
Wed 09:13:00 PM 38.0796 -79.2348 329° Northwest  Level FlightAware Approximate
Wed 09:14:00 PM 38.1210 -79.2667 329° Northwest  Level FlightAware Approximate
Wed 09:15:00 PM 38.1624 -79.2987 329° Northwest  Level FlightAware Approximate
Wed 09:16:00 PM 38.2038 -79.3307 329° Northwest  Level FlightAware Approximate
Wed 09:17:00 PM 38.2452 -79.3627 329° Northwest  Level FlightAware Approximate
Wed 09:18:00 PM 38.2866 -79.3948 329° Northwest  Level FlightAware Approximate
Wed 09:19:00 PM 38.3280 -79.4269 329° Northwest  Level FlightAware Approximate
Wed 09:20:00 PM 38.3693 -79.4591 329° Northwest  Level FlightAware Approximate
Wed 09:21:00 PM 38.4107 -79.4913 329° Northwest  Level FlightAware Approximate
Wed 09:22:00 PM 38.4520 -79.5235 329° Northwest  Level FlightAware Approximate
Wed 09:23:00 PM 38.4934 -79.5557 329° Northwest  Level FlightAware Approximate
Wed 09:24:00 PM 38.5363 -79.5845 328° Northwest  Level Estimated
Wed 09:25:00 PM 38.5772 -79.6176 328° Northwest  Level FlightAware Approximate
Wed 09:26:00 PM 38.6181 -79.6508 328° Northwest  Level FlightAware Approximate
Wed 09:27:00 PM 38.6591 -79.6840 328° Northwest  Level FlightAware Approximate
Wed 09:28:00 PM 38.7000 -79.7173 328° Northwest  Level FlightAware Approximate
Wed 09:29:00 PM 38.7408 -79.7506 328° Northwest  Level FlightAware Approximate
Wed 09:30:00 PM 38.7817 -79.7839 328° Northwest  Level FlightAware Approximate
Wed 09:31:00 PM 38.8226 -79.8173 328° Northwest  Level FlightAware Approximate
Wed 09:32:00 PM 38.8635 -79.8507 328° Northwest  Level FlightAware Approximate
Wed 09:33:00 PM 38.9043 -79.8841 328° Northwest  Level FlightAware Approximate
Wed 09:34:00 PM 38.9452 -79.9176 327° Northwest  Level FlightAware Approximate
Wed 09:35:00 PM 38.9860 -79.9511 327° Northwest  Level FlightAware Approximate
Wed 09:36:00 PM 39.0268 -79.9847 327° Northwest  Level FlightAware Approximate
Wed 09:37:00 PM 39.0676 -80.0183 327° Northwest  Level FlightAware Approximate
Wed 09:38:00 PM 39.1085 -80.0519 327° Northwest  Level FlightAware Approximate
Wed 09:39:00 PM 39.1517 -80.0801 327° Northwest  Level Estimated
Wed 09:40:00 PM 39.1920 -80.1148 326° Northwest  Level FlightAware Approximate
Wed 09:41:00 PM 39.2323 -80.1495 326° Northwest  Level FlightAware Approximate
Wed 09:42:00 PM 39.2725 -80.1843 326° Northwest  Level FlightAware Approximate
Wed 09:43:00 PM 39.3128 -80.2191 326° Northwest  Level FlightAware Approximate
Wed 09:44:00 PM 39.3531 -80.2539 326° Northwest  Level FlightAware Approximate
Wed 09:45:00 PM 39.3933 -80.2888 326° Northwest  Level FlightAware Approximate
Wed 09:46:00 PM 39.4335 -80.3237 326° Northwest  Level FlightAware Approximate
Wed 09:47:00 PM 39.4737 -80.3587 326° Northwest  Level FlightAware Approximate
Wed 09:48:00 PM 39.5140 -80.3937 326° Northwest  Level FlightAware Approximate
Wed 09:49:00 PM 39.5541 -80.4287 326° Northwest  Level FlightAware Approximate
Wed 09:50:00 PM 39.5979 -80.4558 327° Northwest  Level Estimated
Wed 09:51:00 PM 39.6384 -80.4902 327° Northwest  Level FlightAware Approximate
Wed 09:52:00 PM 39.6790 -80.5246 327° Northwest  Level FlightAware Approximate
Wed 09:53:00 PM 39.7196 -80.5591 327° Northwest  Level FlightAware Approximate
Wed 09:54:00 PM 39.7601 -80.5936 327° Northwest  Level FlightAware Approximate
Wed 09:55:00 PM 39.8006 -80.6281 327° Northwest  Level FlightAware Approximate
Wed 09:56:00 PM 39.8411 -80.6627 327° Northwest  Level FlightAware Approximate
Wed 09:57:00 PM 39.8816 -80.6973 327° Northwest  Level FlightAware Approximate
Wed 09:58:00 PM 39.9221 -80.7320 327° Northwest  Level FlightAware Approximate
Wed 09:59:00 PM 39.9626 -80.7667 327° Northwest  Level FlightAware Approximate
Wed 10:00:00 PM 40.0031 -80.8014 327° Northwest  Level FlightAware Approximate
Wed 10:01:00 PM 40.0435 -80.8362 327° Northwest  Level FlightAware Approximate
Wed 10:02:00 PM 40.0840 -80.8710 327° Northwest  Level FlightAware Approximate
Wed 10:03:00 PM 40.1244 -80.9059 327° Northwest  Level FlightAware Approximate
Wed 10:04:00 PM 40.1649 -80.9408 327° Northwest  Level FlightAware Approximate
Wed 10:05:00 PM 40.2097 -80.9649 330° Northwest  Level Estimated
Wed 10:06:00 PM 40.2490 -81.0019 324° Northwest  Level FlightAware Approximate
Wed 10:07:00 PM 40.2940 -81.0256 327° Northwest  Level Estimated
Wed 10:08:00 PM 40.3334 -81.0624 325° Northwest  Level FlightAware Approximate
Wed 10:09:00 PM 40.3729 -81.0993 325° Northwest  Level FlightAware Approximate
Wed 10:10:00 PM 40.4123 -81.1363 325° Northwest  Level FlightAware Approximate
Wed 10:11:00 PM 40.4517 -81.1733 324° Northwest  Level FlightAware Approximate
Wed 10:12:00 PM 40.4911 -81.2103 324° Northwest  Level FlightAware Approximate
Wed 10:13:00 PM 40.5369 -81.2311 333° Northwest  Level Estimated
Wed 10:14:00 PM 40.5827 -81.2519 326° Northwest  Level Estimated
Wed 10:15:00 PM 40.6200 -81.2926 320° Northwest  Level FlightAware Approximate
Wed 10:16:00 PM 40.6573 -81.3334 320° Northwest  Level FlightAware Approximate
Wed 10:17:00 PM 40.6946 -81.3742 320° Northwest  Level FlightAware Approximate
Wed 10:18:00 PM 40.7412 -81.3915 323° Northwest  Level Estimated
Wed 10:19:00 PM 40.7879 -81.4088 317° Northwest  Level Estimated
Wed 10:20:00 PM 40.8158 -81.4611 305° West  Level FlightAware Approximate
Wed 10:21:00 PM 40.8438 -81.5133 305° West  Level FlightAware Approximate
Wed 10:22:00 PM 40.8717 -81.5657 305° West  Level FlightAware Approximate
Wed 10:23:00 PM 40.9197 -81.5743 323° Northwest  Level Estimated
Wed 10:24:00 PM 40.9467 -81.6276 304° West  Level FlightAware Approximate
Wed 10:25:00 PM 40.9950 -81.6323 317° Northwest  Level Estimated
Wed 10:26:00 PM 41.0172 -81.6893 297° West  Level FlightAware Approximate
Wed 10:27:00 PM 41.0657 -81.6888 323° Northwest  Level Estimated
Wed 10:28:00 PM 41.1141 -81.6882 314° West  Level Estimated
Wed 10:29:00 PM 41.1293 -81.7492 288° West  Level FlightAware Approximate
Wed 10:30:00 PM 41.1774 -81.7411 319° Northwest  Level Estimated
Wed 10:31:00 PM 41.1975 -81.7997 295° West  Level FlightAware Approximate
Wed 10:32:00 PM 41.2176 -81.8583 295° West  Level FlightAware Approximate
Wed 10:33:00 PM 41.2620 -81.8325 323° Northwest  Level Estimated
Wed 10:34:00 PM 41.2788 -81.8929 290° West  Level FlightAware Approximate
Wed 10:35:00 PM 41.3193 -81.8575 69° East  Level Estimated
Wed 10:36:00 PM 41.3405 -81.9155 296° West  Level FlightAware Approximate
Wed 10:37:00 PM 41.3751 -81.8703 62° Northeast  Level Estimated
Wed 10:38:00 PM 41.4096 -81.8251 62° Northeast  Level Estimated
Wed 10:39:00 PM 41.4536 -81.8522 335° Northwest  Level FlightAware Approximate
Wed 10:40:00 PM 41.4621 -81.8137 66° East  Level FlightAware Approximate
Wed 10:41:00 PM 41.4818 -81.7546 66° East  Level FlightAware Approximate
Wed 10:42:00 PM 41.5044 -81.6974 62° Northeast  Level FlightAware Approximate
Wed 10:43:00 PM 41.5175 -81.6833 62° Northeast  Level Estimated
Wed 10:44:00 PM 41.5175 -81.6833 62° Northeast  Level Estimated
Wed 10:45:00 PM 41.5175 -81.6833 62° Northeast  Level Estimated
Wed 10:46:00 PM 41.5175 -81.6833 62° Northeast  Level Estimated
Wed 10:47:00 PM 41.5175 -81.6833 62° Northeast  Level Estimated
Wed 10:48:00 PM 41.5175 -81.6833 62° Northeast  Level Estimated
Wed 10:49:00 PM 41.5175 -81.6833 62° Northeast  Level Estimated
Wed 10:50:00 PM 41.5175 -81.6833 62° Northeast  Level Estimated
Wed 10:51:00 PM 41.5175 -81.6833 62° Northeast  Level Estimated

Login

Don't have an account? Register now (free) for customized features, flight alerts, and more!